sensor_id;sensor_type;location;lat;lon;timestamp;pressure;altitude;pressure_sealevel;temperature;humidity
39223;BME280;24936;46.328;11.026;2023-12-14T00:02:13;93116.34;;;0.36;100.00
39223;BME280;24936;46.328;11.026;2023-12-14T00:04:38;93111.13;;;0.24;100.00
39223;BME280;24936;46.328;11.026;2023-12-14T00:07:03;93120.91;;;-0.17;100.00
39223;BME280;24936;46.328;11.026;2023-12-14T00:09:29;93127.22;;;-0.21;100.00
39223;BME280;24936;46.328;11.026;2023-12-14T00:11:54;93129.06;;;-0.10;100.00
39223;BME280;24936;46.328;11.026;2023-12-14T00:14:20;93123.66;;;-0.07;100.00
39223;BME280;24936;46.328;11.026;2023-12-14T00:16:45;93130.13;;;0.12;100.00
39223;BME280;24936;46.328;11.026;2023-12-14T00:19:11;93133.94;;;0.19;100.00
39223;BME280;24936;46.328;11.026;2023-12-14T00:21:36;93138.19;;;0.20;100.00
39223;BME280;24936;46.328;11.026;2023-12-14T00:24:02;93138.19;;;0.20;100.00
39223;BME280;24936;46.328;11.026;2023-12-14T00:26:27;93133.47;;;0.01;100.00
39223;BME280;24936;46.328;11.026;2023-12-14T00:28:53;93134.50;;;-0.02;100.00
39223;BME280;24936;46.328;11.026;2023-12-14T00:31:18;93141.31;;;0.12;100.00
39223;BME280;24936;46.328;11.026;2023-12-14T00:33:43;93151.19;;;-0.06;100.00
39223;BME280;24936;46.328;11.026;2023-12-14T00:36:10;93143.88;;;-0.12;100.00
39223;BME280;24936;46.328;11.026;2023-12-14T00:38:35;93143.00;;;0.01;100.00
39223;BME280;24936;46.328;11.026;2023-12-14T00:41:01;93143.75;;;0.27;100.00
39223;BME280;24936;46.328;11.026;2023-12-14T00:43:26;93149.72;;;0.27;100.00
39223;BME280;24936;46.328;11.026;2023-12-14T00:45:51;93151.41;;;0.15;100.00
39223;BME280;24936;46.328;11.026;2023-12-14T00:48:18;93160.09;;;0.27;100.00
39223;BME280;24936;46.328;11.026;2023-12-14T00:50:43;93167.91;;;0.39;100.00
39223;BME280;24936;46.328;11.026;2023-12-14T00:53:09;93178.00;;;0.30;100.00
39223;BME280;24936;46.328;11.026;2023-12-14T00:55:34;93183.59;;;0.24;100.00
39223;BME280;24936;46.328;11.026;2023-12-14T00:57:59;93185.31;;;0.37;100.00
39223;BME280;24936;46.328;11.026;2023-12-14T01:00:25;93178.44;;;0.49;100.00
39223;BME280;24936;46.328;11.026;2023-12-14T01:02:50;93176.78;;;0.48;100.00
39223;BME280;24936;46.328;11.026;2023-12-14T01:05:16;93178.81;;;0.55;100.00
39223;BME280;24936;46.328;11.026;2023-12-14T01:07:41;93186.19;;;0.49;100.00
39223;BME280;24936;46.328;11.026;2023-12-14T01:10:07;93193.25;;;0.47;100.00
39223;BME280;24936;46.328;11.026;2023-12-14T01:12:33;93194.56;;;0.52;100.00
39223;BME280;24936;46.328;11.026;2023-12-14T01:14:58;93198.25;;;0.61;100.00
39223;BME280;24936;46.328;11.026;2023-12-14T01:17:23;93201.72;;;0.49;100.00
39223;BME280;24936;46.328;11.026;2023-12-14T01:19:49;93199.13;;;0.49;100.00
39223;BME280;24936;46.328;11.026;2023-12-14T01:22:14;93212.34;;;0.57;100.00
39223;BME280;24936;46.328;11.026;2023-12-14T01:24:40;93217.91;;;0.64;100.00
39223;BME280;24936;46.328;11.026;2023-12-14T01:27:05;93212.66;;;0.65;100.00
39223;BME280;24936;46.328;11.026;2023-12-14T01:29:31;93215.41;;;0.75;100.00
39223;BME280;24936;46.328;11.026;2023-12-14T01:31:56;93214.34;;;0.78;100.00
39223;BME280;24936;46.328;11.026;2023-12-14T01:34:22;93215.84;;;0.69;100.00
39223;BME280;24936;46.328;11.026;2023-12-14T01:36:47;93219.47;;;0.66;100.00
39223;BME280;24936;46.328;11.026;2023-12-14T01:39:13;93229.72;;;0.68;100.00
39223;BME280;24936;46.328;11.026;2023-12-14T01:41:38;93229.75;;;0.79;100.00
39223;BME280;24936;46.328;11.026;2023-12-14T01:44:03;93230.22;;;0.73;100.00
39223;BME280;24936;46.328;11.026;2023-12-14T01:46:29;93243.00;;;0.87;100.00
39223;BME280;24936;46.328;11.026;2023-12-14T01:48:54;93246.63;;;0.85;100.00
39223;BME280;24936;46.328;11.026;2023-12-14T01:51:20;93249.28;;;0.72;100.00
39223;BME280;24936;46.328;11.026;2023-12-14T01:53:45;93245.25;;;0.68;100.00
39223;BME280;24936;46.328;11.026;2023-12-14T01:56:11;93253.06;;;0.79;100.00
39223;BME280;24936;46.328;11.026;2023-12-14T01:58:36;93258.31;;;0.66;100.00
39223;BME280;24936;46.328;11.026;2023-12-14T02:01:04;93253.97;;;0.67;100.00
39223;BME280;24936;46.328;11.026;2023-12-14T02:03:33;93260.78;;;0.68;100.00
39223;BME280;24936;46.328;11.026;2023-12-14T02:05:58;93270.75;;;0.61;100.00
39223;BME280;24936;46.328;11.026;2023-12-14T02:08:24;93264.88;;;0.59;100.00
39223;BME280;24936;46.328;11.026;2023-12-14T02:10:50;93264.88;;;0.59;100.00
39223;BME280;24936;46.328;11.026;2023-12-14T02:13:15;93263.34;;;0.56;100.00
39223;BME280;24936;46.328;11.026;2023-12-14T02:15:41;93263.69;;;0.76;100.00
39223;BME280;24936;46.328;11.026;2023-12-14T02:18:07;93269.81;;;0.75;100.00
39223;BME280;24936;46.328;11.026;2023-12-14T02:20:33;93270.75;;;0.61;100.00
39223;BME280;24936;46.328;11.026;2023-12-14T02:22:58;93267.66;;;0.56;100.00
39223;BME280;24936;46.328;11.026;2023-12-14T02:25:24;93276.16;;;0.58;100.00
39223;BME280;24936;46.328;11.026;2023-12-14T02:27:50;93271.53;;;0.50;100.00
39223;BME280;24936;46.328;11.026;2023-12-14T02:30:17;93265.38;;;0.64;100.00
39223;BME280;24936;46.328;11.026;2023-12-14T02:32:42;93268.13;;;0.50;100.00
39223;BME280;24936;46.328;11.026;2023-12-14T02:35:08;93279.28;;;0.50;100.00
39223;BME280;24936;46.328;11.026;2023-12-14T02:37:34;93277.00;;;0.58;100.00
39223;BME280;24936;46.328;11.026;2023-12-14T02:40:04;93277.63;;;0.49;100.00
39223;BME280;24936;46.328;11.026;2023-12-14T02:42:30;93279.06;;;0.53;100.00
39223;BME280;24936;46.328;11.026;2023-12-14T02:44:56;93280.19;;;0.62;100.00
39223;BME280;24936;46.328;11.026;2023-12-14T02:47:21;93285.09;;;0.54;100.00
39223;BME280;24936;46.328;11.026;2023-12-14T02:49:47;93289.22;;;0.56;100.00
39223;BME280;24936;46.328;11.026;2023-12-14T02:52:12;93277.31;;;0.78;100.00
39223;BME280;24936;46.328;11.026;2023-12-14T02:54:38;93288.56;;;0.66;100.00
39223;BME280;24936;46.328;11.026;2023-12-14T02:57:04;93296.28;;;0.54;100.00
39223;BME280;24936;46.328;11.026;2023-12-14T02:59:30;93304.16;;;0.53;100.00
39223;BME280;24936;46.328;11.026;2023-12-14T03:01:55;93298.97;;;0.53;100.00
39223;BME280;24936;46.328;11.026;2023-12-14T03:04:21;93298.44;;;0.60;100.00
39223;BME280;24936;46.328;11.026;2023-12-14T03:06:46;93301.59;;;0.40;100.00
39223;BME280;24936;46.328;11.026;2023-12-14T03:09:11;93296.34;;;0.28;100.00
39223;BME280;24936;46.328;11.026;2023-12-14T03:11:37;93295.09;;;0.21;100.00
39223;BME280;24936;46.328;11.026;2023-12-14T03:14:03;93300.78;;;0.26;100.00
39223;BME280;24936;46.328;11.026;2023-12-14T03:16:28;93307.53;;;0.16;100.00
39223;BME280;24936;46.328;11.026;2023-12-14T03:18:54;93312.41;;;0.21;100.00
39223;BME280;24936;46.328;11.026;2023-12-14T03:21:20;93315.19;;;0.18;100.00
39223;BME280;24936;46.328;11.026;2023-12-14T03:23:45;93317.03;;;0.15;100.00
39223;BME280;24936;46.328;11.026;2023-12-14T03:26:11;93317.38;;;0.11;100.00
39223;BME280;24936;46.328;11.026;2023-12-14T03:28:37;93323.47;;;0.10;100.00
39223;BME280;24936;46.328;11.026;2023-12-14T03:31:02;93324.81;;;0.28;100.00
39223;BME280;24936;46.328;11.026;2023-12-14T03:33:28;93321.50;;;0.26;100.00
39223;BME280;24936;46.328;11.026;2023-12-14T03:35:54;93333.81;;;0.23;100.00
39223;BME280;24936;46.328;11.026;2023-12-14T03:38:20;93328.03;;;0.19;100.00
39223;BME280;24936;46.328;11.026;2023-12-14T03:40:45;93322.63;;;0.22;100.00
39223;BME280;24936;46.328;11.026;2023-12-14T03:43:11;93329.78;;;0.19;100.00
39223;BME280;24936;46.328;11.026;2023-12-14T03:45:36;93332.50;;;0.17;100.00
39223;BME280;24936;46.328;11.026;2023-12-14T03:48:02;93333.22;;;0.19;100.00
39223;BME280;24936;46.328;11.026;2023-12-14T03:50:27;93339.81;;;0.23;100.00
39223;BME280;24936;46.328;11.026;2023-12-14T03:52:54;93340.47;;;0.14;100.00
39223;BME280;24936;46.328;11.026;2023-12-14T03:55:20;93349.34;;;0.10;100.00
39223;BME280;24936;46.328;11.026;2023-12-14T03:57:45;93355.38;;;0.10;100.00
39223;BME280;24936;46.328;11.026;2023-12-14T04:00:12;93365.41;;;0.15;100.00
39223;BME280;24936;46.328;11.026;2023-12-14T04:02:38;93367.56;;;0.21;100.00
39223;BME280;24936;46.328;11.026;2023-12-14T04:05:04;93375.56;;;0.18;100.00
39223;BME280;24936;46.328;11.026;2023-12-14T04:07:30;93377.41;;;0.16;100.00
39223;BME280;24936;46.328;11.026;2023-12-14T04:09:55;93387.03;;;0.14;100.00
39223;BME280;24936;46.328;11.026;2023-12-14T04:12:20;93390.66;;;0.24;100.00
39223;BME280;24936;46.328;11.026;2023-12-14T04:14:46;93380.41;;;0.23;100.00
39223;BME280;24936;46.328;11.026;2023-12-14T04:17:12;93378.03;;;0.07;100.00
39223;BME280;24936;46.328;11.026;2023-12-14T04:19:41;93386.63;;;0.07;100.00
39223;BME280;24936;46.328;11.026;2023-12-14T04:22:06;93390.75;;;0.10;100.00
39223;BME280;24936;46.328;11.026;2023-12-14T04:24:32;93396.56;;;0.26;100.00
39223;BME280;24936;46.328;11.026;2023-12-14T04:26:57;93389.09;;;0.09;100.00
39223;BME280;24936;46.328;11.026;2023-12-14T04:29:23;93398.41;;;-0.02;100.00
39223;BME280;24936;46.328;11.026;2023-12-14T04:31:48;93397.78;;;0.08;100.00
39223;BME280;24936;46.328;11.026;2023-12-14T04:34:14;93395.81;;;-0.02;100.00
39223;BME280;24936;46.328;11.026;2023-12-14T04:36:45;93399.34;;;-0.03;100.00
39223;BME280;24936;46.328;11.026;2023-12-14T04:39:11;93401.09;;;-0.16;100.00
39223;BME280;24936;46.328;11.026;2023-12-14T04:41:36;93413.09;;;-0.28;100.00
39223;BME280;24936;46.328;11.026;2023-12-14T04:44:02;93418.88;;;-0.11;100.00
39223;BME280;24936;46.328;11.026;2023-12-14T04:46:28;93418.06;;;-0.12;100.00
39223;BME280;24936;46.328;11.026;2023-12-14T04:48:54;93418.69;;;-0.08;100.00
39223;BME280;24936;46.328;11.026;2023-12-14T04:51:20;93419.47;;;-0.34;100.00
39223;BME280;24936;46.328;11.026;2023-12-14T04:53:45;93420.81;;;-0.41;100.00
39223;BME280;24936;46.328;11.026;2023-12-14T04:56:11;93429.97;;;-0.50;100.00
39223;BME280;24936;46.328;11.026;2023-12-14T04:58:38;93435.63;;;-0.57;100.00
39223;BME280;24936;46.328;11.026;2023-12-14T05:01:04;93429.69;;;-0.72;100.00
39223;BME280;24936;46.328;11.026;2023-12-14T05:03:29;93439.78;;;-0.82;100.00
39223;BME280;24936;46.328;11.026;2023-12-14T05:05:54;93445.53;;;-0.91;100.00
39223;BME280;24936;46.328;11.026;2023-12-14T05:08:20;93451.88;;;-0.97;100.00
39223;BME280;24936;46.328;11.026;2023-12-14T05:10:45;93440.44;;;-0.93;100.00
39223;BME280;24936;46.328;11.026;2023-12-14T05:13:11;93443.88;;;-0.93;100.00
39223;BME280;24936;46.328;11.026;2023-12-14T05:15:36;93440.16;;;-0.88;100.00
39223;BME280;24936;46.328;11.026;2023-12-14T05:18:01;93448.00;;;-0.90;100.00
39223;BME280;24936;46.328;11.026;2023-12-14T05:20:27;93462.88;;;-0.94;100.00
39223;BME280;24936;46.328;11.026;2023-12-14T05:22:52;93461.50;;;-0.99;100.00
39223;BME280;24936;46.328;11.026;2023-12-14T05:25:18;93466.22;;;-1.06;100.00
39223;BME280;24936;46.328;11.026;2023-12-14T05:27:43;93465.56;;;-1.10;100.00
39223;BME280;24936;46.328;11.026;2023-12-14T05:30:09;93478.03;;;-1.16;100.00
39223;BME280;24936;46.328;11.026;2023-12-14T05:32:35;93480.81;;;-1.19;100.00
39223;BME280;24936;46.328;11.026;2023-12-14T05:35:00;93485.50;;;-1.12;100.00
39223;BME280;24936;46.328;11.026;2023-12-14T05:37:25;93484.84;;;-1.01;100.00
39223;BME280;24936;46.328;11.026;2023-12-14T05:39:51;93493.78;;;-0.92;100.00
39223;BME280;24936;46.328;11.026;2023-12-14T05:42:17;93489.81;;;-0.83;100.00
39223;BME280;24936;46.328;11.026;2023-12-14T05:44:45;93491.94;;;-0.90;100.00
39223;BME280;24936;46.328;11.026;2023-12-14T05:47:11;93498.50;;;-1.13;100.00
39223;BME280;24936;46.328;11.026;2023-12-14T05:49:36;93490.75;;;-1.28;100.00
39223;BME280;24936;46.328;11.026;2023-12-14T05:52:02;93505.31;;;-1.41;100.00
39223;BME280;24936;46.328;11.026;2023-12-14T05:54:28;93501.09;;;-1.42;100.00
39223;BME280;24936;46.328;11.026;2023-12-14T05:56:54;93508.84;;;-1.13;100.00
39223;BME280;24936;46.328;11.026;2023-12-14T05:59:19;93505.97;;;-1.09;100.00
39223;BME280;24936;46.328;11.026;2023-12-14T06:01:44;93504.97;;;-1.06;100.00
39223;BME280;24936;46.328;11.026;2023-12-14T06:04:10;93508.84;;;-1.13;100.00
39223;BME280;24936;46.328;11.026;2023-12-14T06:06:38;93517.59;;;-1.01;100.00
39223;BME280;24936;46.328;11.026;2023-12-14T06:09:04;93517.59;;;-1.01;100.00
39223;BME280;24936;46.328;11.026;2023-12-14T06:11:31;93519.28;;;-1.15;100.00
39223;BME280;24936;46.328;11.026;2023-12-14T06:13:57;93524.72;;;-1.19;100.00
39223;BME280;24936;46.328;11.026;2023-12-14T06:16:22;93532.00;;;-1.26;100.00
39223;BME280;24936;46.328;11.026;2023-12-14T06:18:47;93533.56;;;-1.38;100.00
39223;BME280;24936;46.328;11.026;2023-12-14T06:21:13;93534.78;;;-1.60;100.00
39223;BME280;24936;46.328;11.026;2023-12-14T06:23:38;93535.91;;;-1.64;100.00
39223;BME280;24936;46.328;11.026;2023-12-14T06:26:04;93538.84;;;-2.01;100.00
39223;BME280;24936;46.328;11.026;2023-12-14T06:28:30;93534.66;;;-1.87;100.00
39223;BME280;24936;46.328;11.026;2023-12-14T06:30:58;93547.81;;;-1.92;100.00
39223;BME280;24936;46.328;11.026;2023-12-14T06:33:24;93543.91;;;-1.99;100.00
39223;BME280;24936;46.328;11.026;2023-12-14T06:35:49;93543.38;;;-2.04;100.00
39223;BME280;24936;46.328;11.026;2023-12-14T06:38:15;93548.03;;;-2.27;100.00
39223;BME280;24936;46.328;11.026;2023-12-14T06:40:40;93559.47;;;-2.31;100.00
39223;BME280;24936;46.328;11.026;2023-12-14T06:43:06;93560.56;;;-1.89;100.00
39223;BME280;24936;46.328;11.026;2023-12-14T06:45:31;93557.81;;;-1.71;100.00
39223;BME280;24936;46.328;11.026;2023-12-14T06:47:57;93558.31;;;-1.95;100.00
39223;BME280;24936;46.328;11.026;2023-12-14T06:50:22;93565.19;;;-2.10;100.00
39223;BME280;24936;46.328;11.026;2023-12-14T06:52:47;93565.84;;;-2.22;100.00
39223;BME280;24936;46.328;11.026;2023-12-14T06:55:13;93574.50;;;-2.23;100.00
39223;BME280;24936;46.328;11.026;2023-12-14T06:57:42;93573.13;;;-2.15;100.00
39223;BME280;24936;46.328;11.026;2023-12-14T07:00:08;93586.81;;;-2.28;100.00
39223;BME280;24936;46.328;11.026;2023-12-14T07:02:34;93593.78;;;-2.15;100.00
39223;BME280;24936;46.328;11.026;2023-12-14T07:05:00;93597.84;;;-2.10;100.00
39223;BME280;24936;46.328;11.026;2023-12-14T07:07:25;93600.59;;;-2.13;100.00
39223;BME280;24936;46.328;11.026;2023-12-14T07:09:51;93608.00;;;-2.07;100.00
39223;BME280;24936;46.328;11.026;2023-12-14T07:12:16;93613.06;;;-1.90;100.00
39223;BME280;24936;46.328;11.026;2023-12-14T07:14:43;93615.28;;;-1.83;100.00
39223;BME280;24936;46.328;11.026;2023-12-14T07:17:08;93621.34;;;-1.85;100.00
39223;BME280;24936;46.328;11.026;2023-12-14T07:19:34;93631.19;;;-1.75;100.00
39223;BME280;24936;46.328;11.026;2023-12-14T07:22:01;93634.31;;;-1.70;100.00
39223;BME280;24936;46.328;11.026;2023-12-14T07:24:26;93637.16;;;-1.75;100.00
39223;BME280;24936;46.328;11.026;2023-12-14T07:26:51;93638.00;;;-1.74;100.00
39223;BME280;24936;46.328;11.026;2023-12-14T07:29:17;93642.16;;;-1.72;100.00
39223;BME280;24936;46.328;11.026;2023-12-14T07:31:42;93640.81;;;-1.79;100.00
39223;BME280;24936;46.328;11.026;2023-12-14T07:34:08;93635.28;;;-1.57;100.00
39223;BME280;24936;46.328;11.026;2023-12-14T07:36:33;93642.69;;;-1.50;100.00
39223;BME280;24936;46.328;11.026;2023-12-14T07:38:59;93645.16;;;-1.79;100.00
39223;BME280;24936;46.328;11.026;2023-12-14T07:41:26;93647.63;;;-1.62;100.00
39223;BME280;24936;46.328;11.026;2023-12-14T07:43:55;93650.06;;;-1.44;100.00
39223;BME280;24936;46.328;11.026;2023-12-14T07:46:21;93645.91;;;-1.47;100.00
39223;BME280;24936;46.328;11.026;2023-12-14T07:48:46;93651.06;;;-1.16;100.00
39223;BME280;24936;46.328;11.026;2023-12-14T07:51:11;93649.63;;;-1.06;100.00
39223;BME280;24936;46.328;11.026;2023-12-14T07:53:37;93653.13;;;-1.07;100.00
39223;BME280;24936;46.328;11.026;2023-12-14T07:56:03;93665.31;;;-0.95;100.00
39223;BME280;24936;46.328;11.026;2023-12-14T07:58:28;93662.34;;;-0.88;100.00
39223;BME280;24936;46.328;11.026;2023-12-14T08:00:54;93658.50;;;-0.81;100.00
39223;BME280;24936;46.328;11.026;2023-12-14T08:03:19;93667.56;;;-0.59;100.00
39223;BME280;24936;46.328;11.026;2023-12-14T08:05:44;93662.03;;;-0.39;100.00
39223;BME280;24936;46.328;11.026;2023-12-14T08:08:10;93669.22;;;-0.29;100.00
39223;BME280;24936;46.328;11.026;2023-12-14T08:10:35;93680.91;;;-0.09;100.00
39223;BME280;24936;46.328;11.026;2023-12-14T08:13:01;93686.16;;;0.04;100.00
39223;BME280;24936;46.328;11.026;2023-12-14T08:15:26;93688.13;;;0.27;100.00
39223;BME280;24936;46.328;11.026;2023-12-14T08:17:51;93689.03;;;0.41;100.00
39223;BME280;24936;46.328;11.026;2023-12-14T08:20:17;93693.59;;;0.50;100.00
39223;BME280;24936;46.328;11.026;2023-12-14T08:22:42;93695.63;;;0.59;100.00
39223;BME280;24936;46.328;11.026;2023-12-14T08:25:12;93694.41;;;0.65;100.00
39223;BME280;24936;46.328;11.026;2023-12-14T08:27:41;93687.88;;;0.72;100.00
39223;BME280;24936;46.328;11.026;2023-12-14T08:30:07;93699.66;;;0.91;100.00
39223;BME280;24936;46.328;11.026;2023-12-14T08:32:33;93701.19;;;0.94;100.00
39223;BME280;24936;46.328;11.026;2023-12-14T08:34:59;93708.34;;;0.90;100.00
39223;BME280;24936;46.328;11.026;2023-12-14T08:37:25;93713.66;;;1.01;100.00
39223;BME280;24936;46.328;11.026;2023-12-14T08:39:50;93704.56;;;1.09;100.00
39223;BME280;24936;46.328;11.026;2023-12-14T08:42:16;93715.16;;;1.18;100.00
39223;BME280;24936;46.328;11.026;2023-12-14T08:44:41;93725.91;;;1.12;100.00
39223;BME280;24936;46.328;11.026;2023-12-14T08:47:07;93728.81;;;1.08;100.00
39223;BME280;24936;46.328;11.026;2023-12-14T08:49:34;93736.66;;;1.06;100.00
39223;BME280;24936;46.328;11.026;2023-12-14T08:52:00;93732.16;;;1.22;100.00
39223;BME280;24936;46.328;11.026;2023-12-14T08:54:25;93736.44;;;1.62;100.00
39223;BME280;24936;46.328;11.026;2023-12-14T08:56:51;93736.13;;;1.93;100.00
39223;BME280;24936;46.328;11.026;2023-12-14T08:59:17;93731.84;;;2.55;100.00
39223;BME280;24936;46.328;11.026;2023-12-14T09:01:44;93733.81;;;4.39;100.00
39223;BME280;24936;46.328;11.026;2023-12-14T09:04:10;93726.88;;;5.80;100.00
39223;BME280;24936;46.328;11.026;2023-12-14T09:06:35;93721.66;;;7.12;100.00
39223;BME280;24936;46.328;11.026;2023-12-14T09:09:00;93723.63;;;7.10;100.00
39223;BME280;24936;46.328;11.026;2023-12-14T09:11:26;93735.84;;;7.00;100.00
39223;BME280;24936;46.328;11.026;2023-12-14T09:13:51;93745.09;;;6.12;100.00
39223;BME280;24936;46.328;11.026;2023-12-14T09:16:17;93754.16;;;7.88;100.00
39223;BME280;24936;46.328;11.026;2023-12-14T09:18:42;93771.00;;;7.27;100.00
39223;BME280;24936;46.328;11.026;2023-12-14T09:21:08;93762.81;;;8.56;100.00
39223;BME280;24936;46.328;11.026;2023-12-14T09:23:33;93763.06;;;10.70;100.00
39223;BME280;24936;46.328;11.026;2023-12-14T09:25:59;93752.44;;;11.81;100.00
39223;BME280;24936;46.328;11.026;2023-12-14T09:28:25;93770.84;;;11.39;100.00
39223;BME280;24936;46.328;11.026;2023-12-14T09:30:51;93771.78;;;11.30;100.00
39223;BME280;24936;46.328;11.026;2023-12-14T09:33:17;93776.00;;;10.63;100.00
39223;BME280;24936;46.328;11.026;2023-12-14T09:35:43;93785.72;;;9.56;100.00
39223;BME280;24936;46.328;11.026;2023-12-14T09:38:09;93787.59;;;9.45;100.00
39223;BME280;24936;46.328;11.026;2023-12-14T09:40:36;93781.59;;;10.16;100.00
39223;BME280;24936;46.328;11.026;2023-12-14T09:43:01;93786.72;;;9.99;100.00
39223;BME280;24936;46.328;11.026;2023-12-14T09:45:29;93794.69;;;9.89;100.00
39223;BME280;24936;46.328;11.026;2023-12-14T09:47:59;93799.00;;;10.08;100.00
39223;BME280;24936;46.328;11.026;2023-12-14T09:50:26;93795.09;;;9.40;100.00
39223;BME280;24936;46.328;11.026;2023-12-14T09:52:52;93798.34;;;8.78;100.00
39223;BME280;24936;46.328;11.026;2023-12-14T09:55:17;93802.97;;;9.40;100.00
39223;BME280;24936;46.328;11.026;2023-12-14T09:57:43;93809.59;;;9.81;100.00
39223;BME280;24936;46.328;11.026;2023-12-14T10:00:09;93809.13;;;10.48;100.00
39223;BME280;24936;46.328;11.026;2023-12-14T10:02:36;93810.13;;;10.47;100.00
39223;BME280;24936;46.328;11.026;2023-12-14T10:05:02;93794.38;;;10.55;100.00
39223;BME280;24936;46.328;11.026;2023-12-14T10:07:30;93803.06;;;10.03;100.00
39223;BME280;24936;46.328;11.026;2023-12-14T10:10:12;93797.28;;;9.63;100.00
39223;BME280;24936;46.328;11.026;2023-12-14T10:12:54;93799.59;;;9.02;100.00
39223;BME280;24936;46.328;11.026;2023-12-14T10:15:20;93792.31;;;8.10;100.00
39223;BME280;24936;46.328;11.026;2023-12-14T10:17:45;93807.25;;;7.41;100.00
39223;BME280;24936;46.328;11.026;2023-12-14T10:20:21;93805.06;;;7.56;100.00
39223;BME280;24936;46.328;11.026;2023-12-14T10:22:48;93806.06;;;6.23;100.00
39223;BME280;24936;46.328;11.026;2023-12-14T10:25:14;93801.09;;;6.20;100.00
39223;BME280;24936;46.328;11.026;2023-12-14T10:27:39;93800.00;;;6.94;100.00
39223;BME280;24936;46.328;11.026;2023-12-14T10:30:08;93800.25;;;6.91;100.00
39223;BME280;24936;46.328;11.026;2023-12-14T10:32:37;93804.38;;;6.84;100.00
39223;BME280;24936;46.328;11.026;2023-12-14T10:35:03;93805.75;;;7.48;100.00
39223;BME280;24936;46.328;11.026;2023-12-14T10:37:29;93807.28;;;7.71;100.00
39223;BME280;24936;46.328;11.026;2023-12-14T10:39:57;93820.31;;;7.31;100.00
39223;BME280;24936;46.328;11.026;2023-12-14T10:42:26;93814.00;;;6.73;100.00
39223;BME280;24936;46.328;11.026;2023-12-14T10:44:52;93813.81;;;7.06;100.00
39223;BME280;24936;46.328;11.026;2023-12-14T10:47:19;93818.84;;;7.88;100.00
39223;BME280;24936;46.328;11.026;2023-12-14T10:49:50;93820.44;;;7.20;100.00
39223;BME280;24936;46.328;11.026;2023-12-14T10:52:16;93816.16;;;7.19;100.00
39223;BME280;24936;46.328;11.026;2023-12-14T10:54:42;93819.38;;;7.23;100.00
39223;BME280;24936;46.328;11.026;2023-12-14T10:57:09;93826.13;;;8.04;100.00
39223;BME280;24936;46.328;11.026;2023-12-14T10:59:35;93823.25;;;7.68;100.00
39223;BME280;24936;46.328;11.026;2023-12-14T11:02:07;93837.72;;;7.52;100.00
39223;BME280;24936;46.328;11.026;2023-12-14T11:07:43;93833.38;;;8.30;100.00
39223;BME280;24936;46.328;11.026;2023-12-14T11:10:10;93842.84;;;7.83;100.00
39223;BME280;24936;46.328;11.026;2023-12-14T11:12:37;93840.88;;;7.95;100.00
39223;BME280;24936;46.328;11.026;2023-12-14T11:15:04;93837.88;;;8.77;100.00
39223;BME280;24936;46.328;11.026;2023-12-14T11:17:30;93843.38;;;9.75;100.00
39223;BME280;24936;46.328;11.026;2023-12-14T11:19:55;93842.19;;;9.70;100.00
39223;BME280;24936;46.328;11.026;2023-12-14T11:22:26;93838.41;;;9.90;100.00
39223;BME280;24936;46.328;11.026;2023-12-14T11:24:54;93842.50;;;11.08;100.00
39223;BME280;24936;46.328;11.026;2023-12-14T11:27:28;93850.16;;;11.87;100.00
39223;BME280;24936;46.328;11.026;2023-12-14T11:29:54;93834.31;;;10.50;100.00
39223;BME280;24936;46.328;11.026;2023-12-14T11:32:19;93839.41;;;10.34;100.00
39223;BME280;24936;46.328;11.026;2023-12-14T11:34:47;93836.34;;;10.38;100.00
39223;BME280;24936;46.328;11.026;2023-12-14T11:37:13;93849.63;;;11.16;100.00
39223;BME280;24936;46.328;11.026;2023-12-14T11:39:39;93849.97;;;10.86;100.00
39223;BME280;24936;46.328;11.026;2023-12-14T11:42:05;93839.16;;;11.32;100.00
39223;BME280;24936;46.328;11.026;2023-12-14T11:44:37;93848.00;;;11.23;100.00
39223;BME280;24936;46.328;11.026;2023-12-14T11:47:03;93850.28;;;10.83;100.00
39223;BME280;24936;46.328;11.026;2023-12-14T11:49:29;93852.22;;;10.10;100.00
39223;BME280;24936;46.328;11.026;2023-12-14T11:51:55;93844.31;;;10.47;100.00
39223;BME280;24936;46.328;11.026;2023-12-14T11:54:21;93846.06;;;10.20;100.00
39223;BME280;24936;46.328;11.026;2023-12-14T11:56:47;93841.44;;;9.77;100.00
39223;BME280;24936;46.328;11.026;2023-12-14T11:59:15;93840.84;;;10.02;100.00
39223;BME280;24936;46.328;11.026;2023-12-14T12:01:54;93848.47;;;11.19;100.00
39223;BME280;24936;46.328;11.026;2023-12-14T12:04:20;93845.53;;;11.81;100.00
39223;BME280;24936;46.328;11.026;2023-12-14T12:06:45;93847.56;;;12.20;100.00
39223;BME280;24936;46.328;11.026;2023-12-14T12:09:11;93853.16;;;12.09;100.00
39223;BME280;24936;46.328;11.026;2023-12-14T12:11:37;93859.13;;;11.52;100.00
39223;BME280;24936;46.328;11.026;2023-12-14T12:14:02;93844.78;;;11.46;100.00
39223;BME280;24936;46.328;11.026;2023-12-14T12:16:30;93846.88;;;10.91;100.00
39223;BME280;24936;46.328;11.026;2023-12-14T12:18:56;93840.22;;;9.90;100.00
39223;BME280;24936;46.328;11.026;2023-12-14T12:21:21;93840.88;;;9.38;100.00
39223;BME280;24936;46.328;11.026;2023-12-14T12:23:47;93851.03;;;10.23;100.00
39223;BME280;24936;46.328;11.026;2023-12-14T12:26:13;93842.06;;;9.43;100.00
39223;BME280;24936;46.328;11.026;2023-12-14T12:28:38;93837.72;;;7.81;100.00
39223;BME280;24936;46.328;11.026;2023-12-14T12:31:04;93836.91;;;8.68;100.00
39223;BME280;24936;46.328;11.026;2023-12-14T12:33:29;93838.13;;;8.83;100.00
39223;BME280;24936;46.328;11.026;2023-12-14T12:35:55;93840.66;;;9.49;100.00
39223;BME280;24936;46.328;11.026;2023-12-14T12:38:21;93833.34;;;9.25;100.00
39223;BME280;24936;46.328;11.026;2023-12-14T12:40:46;93843.97;;;10.05;100.00
39223;BME280;24936;46.328;11.026;2023-12-14T12:43:13;93856.81;;;10.71;100.00